KTCL/TCL METAR and TAF weather

Enter ICAO airport designator
Station Type Date Time Source
KTCL METAR 2024/06/16 07:53 UTC NOAA

KTCL 160753Z AUTO 00000KT 8SM CLR 23/22 A2995 RMK AO2 SLP140 T02330222


Station Type Date Time Source
KTCL Decoded METAR 2024/06/16 07:53 UTC NOAA

TUSCALOOSA REGIONAL AIRPORT, AL, United States (KTCL) 33-13N 087-37W
Jun 16, 2024 - 03:53 AM EDT / 2024.06.16 0753 UTC
Wind: Calm:0
Visibility: 8 mile(s):0
Sky conditions: clear
Temperature: 73.9 F (23.3 C)
Dew Point: 72.0 F (22.2 C)
Relative Humidity: 93%
Pressure (altimeter): 29.95 in. Hg (1014 hPa)
ob: KTCL 160753Z AUTO 00000KT 8SM CLR 23/22 A2995 RMK AO2 SLP140 T02330222
cycle: 8

Station Type Date Time Source
KTCL TAF 2024/06/16 06:27 UTC NOAA